| time (UTC) | temp C | wind direction | speed KPH | gust KPH | rain 1hr cm | rain 24hr cm | rain mn cm | humidity % | barometer mb |
| 20260906235431 | 28 | 197 | 6.4 | 12.9 | 0.00 | 0.00 | 0.00 | 29 | 1012.6 |
| 20260906234925 | 28 | 210 | 14.5 | 20.9 | 0.00 | 0.00 | 0.00 | 28 | 1013.0 |
| 20260906234425 | 28 | 189 | 17.7 | 20.9 | 0.00 | 0.00 | 0.00 | 28 | 1013.2 |
| 20260906233920 | 28 | 175 | 8.0 | 17.7 | 0.00 | 0.00 | 0.00 | 29 | 1013.2 |
| 20260906233419 | 28 | 185 | 11.3 | 16.1 | 0.00 | 0.00 | 0.00 | 28 | 1013.2 |
| 20260906232918 | 28 | 185 | 9.7 | 12.9 | 0.00 | 0.00 | 0.00 | 28 | 1013.1 |
| 20260906232413 | 28 | 208 | 19.3 | 24.1 | 0.00 | 0.00 | 0.00 | 28 | 1013.2 |
| 20260906231908 | 28 | 186 | 0.0 | 14.5 | 0.00 | 0.00 | 0.00 | 29 | 1013.3 |
| 20260906231403 | 28 | 188 | 0.0 | 3.2 | 0.00 | 0.00 | 0.00 | 29 | 1013.3 |
| 20260906230902 | 28 | 181 | 1.6 | 4.8 | 0.00 | 0.00 | 0.00 | 29 | 1013.5 |
| 20260906230357 | 28 | 208 | 1.6 | 3.2 | 0.00 | 0.00 | 0.00 | 29 | 1013.3 |
| 20260906225855 | 28 | 205 | 0.0 | 1.6 | 0.00 | 0.00 | 0.00 | 30 | 1013.8 |
| 20260906225351 | 28 | 205 | 0.0 | 1.6 | 0.00 | 0.00 | 0.00 | 29 | 1013.5 |
| 20260906224846 | 28 | 247 | 3.2 | 3.2 | 0.00 | 0.00 | 0.00 | 29 | 1013.6 |
| 20260906224343 | 28 | 179 | 1.6 | 6.4 | 0.00 | 0.00 | 0.00 | 28 | 1013.5 |
| 20260906223839 | 28 | 206 | 1.6 | 4.8 | 0.00 | 0.00 | 0.00 | 29 | 1013.5 |
| 20260906223335 | 28 | 201 | 4.8 | 14.5 | 0.00 | 0.00 | 0.00 | 28 | 1013.6 |
| 20260906222833 | 28 | 178 | 1.6 | 4.8 | 0.00 | 0.00 | 0.00 | 28 | 1013.8 |
| 20260906222332 | 28 | 208 | 19.3 | 22.5 | 0.00 | 0.00 | 0.00 | 27 | 1014.0 |
| 20260906221830 | 28 | 219 | 6.4 | 16.1 | 0.00 | 0.00 | 0.00 | 28 | 1013.9 |
| 20260906221330 | 28 | 201 | 0.0 | 3.2 | 0.00 | 0.00 | 0.00 | 29 | 1014.0 |
| 20260906220825 | 28 | 210 | 3.2 | 6.4 | 0.00 | 0.00 | 0.00 | 28 | 1014.3 |
| 20260906220321 | 28 | 204 | 3.2 | 6.4 | 0.00 | 0.00 | 0.00 | 29 | 1014.3 |
| 20260906215819 | 28 | 210 | 1.6 | 9.7 | 0.00 | 0.00 | 0.00 | 29 | 1014.3 |
| 20260906215314 | 29 | 214 | 1.6 | 6.4 | 0.00 | 0.00 | 0.00 | 29 | 1014.2 |
| 20260906214812 | 29 | 197 | 11.3 | 16.1 | 0.00 | 0.00 | 0.00 | 27 | 1014.3 |
| 20260906214307 | 29 | 197 | 3.2 | 11.3 | 0.00 | 0.00 | 0.00 | 28 | 1014.1 |
| 20260906213807 | 29 | 216 | 6.4 | 14.5 | 0.00 | 0.00 | 0.00 | 26 | 1014.2 |
| 20260906213307 | 29 | 214 | 11.3 | 14.5 | 0.00 | 0.00 | 0.00 | 27 | 1014.2 |
| 20260906212804 | 28 | 205 | 11.3 | 14.5 | 0.00 | 0.00 | 0.00 | 27 | 1014.1 |
| 20260906212300 | 28 | 201 | 17.7 | 22.5 | 0.00 | 0.00 | 0.00 | 27 | 1014.4 |
| 20260906211759 | 30 | 220 | 14.5 | 22.5 | 0.00 | 0.00 | 0.00 | 26 | 1014.3 |
| 20260906211254 | 30 | 220 | 12.9 | 17.7 | 0.00 | 0.00 | 0.00 | 26 | 1014.3 |
| 20260906210750 | 30 | 178 | 8.0 | 14.5 | 0.00 | 0.00 | 0.00 | 26 | 1014.3 |
| 20260906210244 | 30 | 211 | 4.8 | 12.9 | 0.00 | 0.00 | 0.00 | 26 | 1014.3 |
| 20260906205744 | 29 | 210 | 9.7 | 14.5 | 0.00 | 0.00 | 0.00 | 26 | 1014.3 |
| 20260906205241 | 29 | 185 | 12.9 | 17.7 | 0.00 | 0.00 | 0.00 | 26 | 1014.5 |
| 20260906204736 | 29 | 201 | 17.7 | 20.9 | 0.00 | 0.00 | 0.00 | 26 | 1014.7 |
| 20260906204235 | 29 | 203 | 14.5 | 24.1 | 0.00 | 0.00 | 0.00 | 26 | 1014.5 |
| 20260906203735 | 28 | 229 | 22.5 | 33.8 | 0.00 | 0.00 | 0.00 | 26 | 1014.5 |
| 20260906203230 | 29 | 200 | 11.3 | 24.1 | 0.00 | 0.00 | 0.00 | 25 | 1014.9 |
| 20260906202727 | 29 | 210 | 14.5 | 33.8 | 0.00 | 0.00 | 0.00 | 26 | 1014.9 |
| 20260906202227 | 29 | 205 | 17.7 | 27.4 | 0.00 | 0.00 | 0.00 | 25 | 1015.0 |
| 20260906201727 | 30 | 203 | 9.7 | 20.9 | 0.00 | 0.00 | 0.00 | 25 | 1014.9 |
| 20260906201226 | 30 | 222 | 8.0 | 22.5 | 0.00 | 0.00 | 0.00 | 25 | 1014.8 |
| 20260906200722 | 30 | 199 | 8.0 | 25.7 | 0.00 | 0.00 | 0.00 | 26 | 1015.1 |
| 20260906200218 | 30 | 208 | 14.5 | 20.9 | 0.00 | 0.00 | 0.00 | 25 | 1015.1 |
| 20260906195713 | 30 | 217 | 9.7 | 22.5 | 0.00 | 0.00 | 0.00 | 26 | 1015.2 |
| 20260906195209 | 30 | 203 | 14.5 | 20.9 | 0.00 | 0.00 | 0.00 | 24 | 1015.1 |
| 20260906194705 | 30 | 199 | 16.1 | 22.5 | 0.00 | 0.00 | 0.00 | 24 | 1015.2 |
| 20260906194200 | 30 | 194 | 1.6 | 9.7 | 0.00 | 0.00 | 0.00 | 26 | 1015.2 |
| 20260906193655 | 29 | 222 | 4.8 | 11.3 | 0.00 | 0.00 | 0.00 | 26 | 1015.3 |
| 20260906193150 | 30 | 226 | 11.3 | 16.1 | 0.00 | 0.00 | 0.00 | 24 | 1015.3 |
| 20260906192646 | 28 | 219 | 3.2 | 9.7 | 0.00 | 0.00 | 0.00 | 27 | 1015.7 |
| 20260906192145 | 28 | 203 | 19.3 | 22.5 | 0.00 | 0.00 | 0.00 | 25 | 1015.7 |
| 20260906191640 | 28 | 224 | 6.4 | 12.9 | 0.00 | 0.00 | 0.00 | 25 | 1015.3 |
| 20260906191140 | 28 | 206 | 4.8 | 22.5 | 0.00 | 0.00 | 0.00 | 26 | 1015.6 |
| 20260906190634 | 28 | 209 | 6.4 | 14.5 | 0.00 | 0.00 | 0.00 | 26 | 1015.9 |
| 20260906190129 | 28 | 197 | 14.5 | 17.7 | 0.00 | 0.00 | 0.00 | 25 | 1015.9 |
| 20260906185628 | 28 | 206 | 9.7 | 16.1 | 0.00 | 0.00 | 0.00 | 26 | 1016.1 |
| 20260906185127 | 29 | 203 | 8.0 | 16.1 | 0.00 | 0.00 | 0.00 | 25 | 1016.0 |
| 20260906184622 | 28 | 194 | 8.0 | 12.9 | 0.00 | 0.00 | 0.00 | 26 | 1016.0 |
| 20260906184118 | 28 | 189 | 9.7 | 14.5 | 0.00 | 0.00 | 0.00 | 25 | 1016.0 |
| 20260906183613 | 28 | 210 | 3.2 | 4.8 | 0.00 | 0.00 | 0.00 | 23 | 1016.3 |
| 20260906183109 | 28 | 186 | 9.7 | 16.1 | 0.00 | 0.00 | 0.00 | 25 | 1016.3 |
| 20260906182603 | 29 | 219 | 11.3 | 20.9 | 0.00 | 0.00 | 0.00 | 25 | 1016.3 |
| 20260906182100 | 28 | 254 | 4.8 | 12.9 | 0.00 | 0.00 | 0.00 | 26 | 1016.4 |
| 20260906181555 | 28 | 194 | 14.5 | 22.5 | 0.00 | 0.00 | 0.00 | 25 | 1016.1 |
| 20260906181051 | 28 | 209 | 8.0 | 9.7 | 0.00 | 0.00 | 0.00 | 25 | 1016.5 |
| 20260906180551 | 28 | 218 | 9.7 | 17.7 | 0.00 | 0.00 | 0.00 | 24 | 1016.7 |
| 20260906180050 | 28 | 199 | 11.3 | 12.9 | 0.00 | 0.00 | 0.00 | 25 | 1016.7 |
| 20260906175549 | 28 | 208 | 9.7 | 12.9 | 0.00 | 0.00 | 0.00 | 26 | 1016.5 |
| 20260906175044 | 28 | 210 | 14.5 | 17.7 | 0.00 | 0.00 | 0.00 | 24 | 1016.9 |
| 20260906174542 | 28 | 206 | 12.9 | 20.9 | 0.00 | 0.00 | 0.00 | 24 | 1016.8 |
| 20260906174037 | 28 | 212 | 11.3 | 22.5 | 0.00 | 0.00 | 0.00 | 25 | 1016.9 |
| 20260906173532 | 28 | 215 | 9.7 | 14.5 | 0.00 | 0.00 | 0.00 | 24 | 1016.9 |
| 20260906173029 | 28 | 199 | 4.8 | 11.3 | 0.00 | 0.00 | 0.00 | 24 | 1017.3 |
| 20260906172528 | 28 | 231 | 3.2 | 9.7 | 0.00 | 0.00 | 0.00 | 25 | 1017.2 |
| 20260906172024 | 28 | 210 | 12.9 | 16.1 | 0.00 | 0.00 | 0.00 | 25 | 1017.3 |
| 20260906171519 | 27 | 215 | 14.5 | 20.9 | 0.00 | 0.00 | 0.00 | 25 | 1017.3 |
| 20260906171014 | 28 | 209 | 11.3 | 17.7 | 0.00 | 0.00 | 0.00 | 26 | 1017.2 |
| 20260906170510 | 28 | 206 | 12.9 | 17.7 | 0.00 | 0.00 | 0.00 | 27 | 1017.4 |
| 20260906170009 | 28 | 228 | 11.3 | 16.1 | 0.00 | 0.00 | 0.00 | 26 | 1017.3 |
| 20260906165506 | 28 | 209 | 11.3 | 16.1 | 0.00 | 0.00 | 0.00 | 27 | 1017.5 |
| 20260906165000 | 28 | 213 | 11.3 | 16.1 | 0.00 | 0.00 | 0.00 | 27 | 1017.4 |
| 20260906164459 | 28 | 207 | 3.2 | 4.8 | 0.00 | 0.00 | 0.00 | 28 | 1017.5 |
| 20260906163956 | 28 | 224 | 3.2 | 9.7 | 0.00 | 0.00 | 0.00 | 29 | 1017.5 |
| 20260906163451 | 28 | 206 | 3.2 | 3.2 | 0.00 | 0.00 | 0.00 | 29 | 1017.6 |
| 20260906162950 | 28 | 211 | 1.6 | 4.8 | 0.00 | 0.00 | 0.00 | 28 | 1017.6 |
| 20260906162448 | 28 | 256 | 1.6 | 1.6 | 0.00 | 0.00 | 0.00 | 28 | 1017.7 |
| 20260906161943 | 27 | 191 | 0.0 | 1.6 | 0.00 | 0.00 | 0.00 | 28 | 1017.5 |
| 20260906161443 | 26 | 170 | 0.0 | 1.6 | 0.00 | 0.00 | 0.00 | 29 | 1017.6 |
| 20260906160942 | 26 | 20 | 4.8 | 6.4 | 0.00 | 0.00 | 0.00 | 31 | 1017.5 |
| 20260906160436 | 25 | 163 | 1.6 | 1.6 | 0.00 | 0.00 | 0.00 | 31 | 1017.8 |
| 20260906155934 | 26 | 80 | 1.6 | 3.2 | 0.00 | 0.00 | 0.00 | 30 | 1017.7 |
| 20260906155428 | 26 | 123 | 1.6 | 1.6 | 0.00 | 0.00 | 0.00 | 30 | 1017.7 |
| 20260906154925 | 25 | 191 | 0.0 | 1.6 | 0.00 | 0.00 | 0.00 | 33 | 1017.8 |
| 20260906154424 | 26 | 91 | 3.2 | 3.2 | 0.00 | 0.00 | 0.00 | 29 | 1018.0 |
| 20260906153923 | 25 | 129 | 1.6 | 1.6 | 0.00 | 0.00 | 0.00 | 30 | 1018.0 |
| 20260906153422 | 24 | 172 | 1.6 | 1.6 | 0.00 | 0.00 | 0.00 | 32 | 1018.1 |
| 20260906152917 | 25 | 171 | 0.0 | 3.2 | 0.00 | 0.00 | 0.00 | 31 | 1018.1 |
| 20260906152412 | 23 | 193 | 0.0 | 3.2 | 0.00 | 0.00 | 0.00 | 32 | 1018.1 |
| 20260906151911 | 23 | 240 | 1.6 | 3.2 | 0.00 | 0.00 | 0.00 | 34 | 1018.0 |
| 20260906151407 | 23 | 253 | 3.2 | 9.7 | 0.00 | 0.00 | 0.00 | 34 | 1018.1 |
| 20260906150903 | 23 | 224 | 3.2 | 3.2 | 0.00 | 0.00 | 0.00 | 34 | 1017.8 |
| 20260906150358 | 23 | 226 | 3.2 | 6.4 | 0.00 | 0.00 | 0.00 | 34 | 1018.0 |
| 20260906145857 | 23 | 204 | 1.6 | 4.8 | 0.00 | 0.00 | 0.00 | 33 | 1017.7 |
| 20260906145357 | 23 | 294 | 3.2 | 4.8 | 0.00 | 0.00 | 0.00 | 33 | 1018.1 |
| 20260906144857 | 23 | 218 | 1.6 | 3.2 | 0.00 | 0.00 | 0.00 | 35 | 1017.8 |
| 20260906144352 | 23 | 117 | 3.2 | 3.2 | 0.00 | 0.00 | 0.00 | 34 | 1017.7 |
| 20260906143846 | 23 | 164 | 1.6 | 4.8 | 0.00 | 0.00 | 0.00 | 33 | 1017.5 |
| 20260906143342 | 23 | 255 | 3.2 | 3.2 | 0.00 | 0.00 | 0.00 | 34 | 1017.6 |
| 20260906142838 | 22 | 186 | 0.0 | 1.6 | 0.00 | 0.00 | 0.00 | 34 | 1017.4 |
| 20260906142332 | 22 | 203 | 1.6 | 3.2 | 0.00 | 0.00 | 0.00 | 36 | 1017.4 |
| 20260906141826 | 21 | 179 | 0.0 | 0.0 | 0.00 | 0.00 | 0.00 | 35 | 1017.4 |
| 20260906141321 | 21 | 177 | 0.0 | 3.2 | 0.00 | 0.00 | 0.00 | 37 | 1017.6 |
| 20260906140819 | 20 | 169 | 0.0 | 0.0 | 0.00 | 0.00 | 0.00 | 37 | 1017.4 |
| 20260906140315 | 20 | 201 | 0.0 | 3.2 | 0.00 | 0.00 | 0.00 | 38 | 1017.2 |
| 20260906135812 | 19 | 194 | 0.0 | 3.2 | 0.00 | 0.00 | 0.00 | 38 | 1017.5 |
| 20260906135307 | 18 | 206 | 0.0 | 1.6 | 0.00 | 0.00 | 0.00 | 38 | 1017.3 |
| 20260906134803 | 18 | 221 | 0.0 | 1.6 | 0.00 | 0.00 | 0.00 | 40 | 1017.3 |
| 20260906134258 | 18 | 220 | 0.0 | 1.6 | 0.00 | 0.00 | 0.00 | 39 | 1017.0 |
| 20260906133753 | 19 | 315 | 3.2 | 4.8 | 0.00 | 0.00 | 0.00 | 38 | 1017.2 |
| 20260906133249 | 20 | 170 | 0.0 | 0.0 | 0.00 | 0.00 | 0.00 | 38 | 1017.0 |
| 20260906132744 | 20 | 170 | 0.0 | 1.6 | 0.00 | 0.00 | 0.00 | 38 | 1016.8 |
| 20260906132239 | 20 | 202 | 0.0 | 3.2 | 0.00 | 0.00 | 0.00 | 38 | 1016.8 |
| 20260906131736 | 20 | 190 | 0.0 | 0.0 | 0.00 | 0.00 | 0.00 | 36 | 1016.8 |
| 20260906131231 | 20 | 187 | 0.0 | 1.6 | 0.00 | 0.00 | 0.00 | 35 | 1016.7 |
| 20260906130726 | 20 | 192 | 0.0 | 0.0 | 0.00 | 0.00 | 0.00 | 35 | 1016.7 |
| 20260906130220 | 20 | 182 | 0.0 | 0.0 | 0.00 | 0.00 | 0.00 | 35 | 1016.8 |
| 20260906125719 | 20 | 190 | 0.0 | 0.0 | 0.00 | 0.00 | 0.00 | 35 | 1016.6 |
| 20260906125218 | 20 | 196 | 1.6 | 3.2 | 0.00 | 0.00 | 0.00 | 34 | 1016.5 |
| 20260906124713 | 18 | 147 | 0.0 | 3.2 | 0.00 | 0.00 | 0.00 | 36 | 1016.7 |
| 20260906124209 | 18 | 154 | 0.0 | 1.6 | 0.00 | 0.00 | 0.00 | 36 | 1016.7 |
| 20260906123707 | 18 | 159 | 0.0 | 1.6 | 0.00 | 0.00 | 0.00 | 40 | 1016.8 |
| 20260906123203 | 18 | 151 | 1.6 | 1.6 | 0.00 | 0.00 | 0.00 | 38 | 1016.7 |
| 20260906122702 | 18 | 176 | 0.0 | 1.6 | 0.00 | 0.00 | 0.00 | 38 | 1016.7 |
| 20260906122157 | 18 | 168 | 0.0 | 1.6 | 0.00 | 0.00 | 0.00 | 35 | 1016.7 |
| 20260906121654 | 18 | 182 | 0.0 | 0.0 | 0.00 | 0.00 | 0.00 | 35 | 1016.6 |
| 20260906121150 | 18 | 168 | 1.6 | 3.2 | 0.00 | 0.00 | 0.00 | 38 | 1016.8 |
| 20260906120645 | 18 | 138 | 0.0 | 1.6 | 0.00 | 0.00 | 0.00 | 36 | 1016.6 |
| 20260906120142 | 18 | 156 | 0.0 | 1.6 | 0.00 | 0.00 | 0.00 | 36 | 1016.5 |
| 20260906115642 | 18 | 163 | 0.0 | 1.6 | 0.00 | 0.00 | 0.00 | 35 | 1016.5 |
| 20260906115138 | 18 | 176 | 0.0 | 0.0 | 0.00 | 0.00 | 0.00 | 35 | 1016.7 |
| 20260906114636 | 18 | 174 | 0.0 | 1.6 | 0.00 | 0.00 | 0.00 | 36 | 1016.4 |
| 20260906114131 | 18 | 172 | 0.0 | 1.6 | 0.00 | 0.00 | 0.00 | 37 | 1016.7 |
| 20260906113631 | 18 | 169 | 0.0 | 1.6 | 0.00 | 0.00 | 0.00 | 35 | 1016.6 |
| 20260906113126 | 18 | 127 | 0.0 | 0.0 | 0.00 | 0.00 | 0.00 | 35 | 1016.7 |
| 20260906112625 | 18 | 174 | 0.0 | 0.0 | 0.00 | 0.00 | 0.00 | 39 | 1016.6 |
| 20260906112123 | 18 | 165 | 0.0 | 0.0 | 0.00 | 0.00 | 0.00 | 38 | 1016.7 |
| 20260906111621 | 18 | 166 | 0.0 | 1.6 | 0.00 | 0.00 | 0.00 | 36 | 1016.6 |
| 20260906111117 | 19 | 175 | 0.0 | 0.0 | 0.00 | 0.00 | 0.00 | 36 | 1016.6 |
| 20260906110612 | 19 | 186 | 0.0 | 0.0 | 0.00 | 0.00 | 0.00 | 34 | 1016.6 |
| 20260906110112 | 20 | 191 | 0.0 | 0.0 | 0.00 | 0.00 | 0.00 | 33 | 1016.6 |
| 20260906105606 | 20 | 132 | 1.6 | 1.6 | 0.00 | 0.00 | 0.00 | 33 | 1016.5 |
| 20260906105102 | 21 | 172 | 0.0 | 1.6 | 0.00 | 0.00 | 0.00 | 31 | 1016.6 |
| 20260906104601 | 21 | 172 | 0.0 | 1.6 | 0.00 | 0.00 | 0.00 | 30 | 1016.6 |
| 20260906104055 | 21 | 194 | 0.0 | 0.0 | 0.00 | 0.00 | 0.00 | 28 | 1016.5 |
| 20260906103554 | 20 | 217 | 3.2 | 4.8 | 0.00 | 0.00 | 0.00 | 28 | 1016.6 |
| 20260906103049 | 20 | 166 | 1.6 | 1.6 | 0.00 | 0.00 | 0.00 | 31 | 1016.5 |
| 20260906102549 | 20 | 196 | 0.0 | 6.4 | 0.00 | 0.00 | 0.00 | 34 | 1016.6 |
| 20260906102044 | 20 | 174 | 0.0 | 0.0 | 0.00 | 0.00 | 0.00 | 32 | 1016.6 |
| 20260906101538 | 20 | 185 | 0.0 | 3.2 | 0.00 | 0.00 | 0.00 | 32 | 1016.4 |
| 20260906101033 | 20 | 156 | 0.0 | 1.6 | 0.00 | 0.00 | 0.00 | 33 | 1016.4 |
| 20260906100530 | 20 | 184 | 0.0 | 1.6 | 0.00 | 0.00 | 0.00 | 31 | 1016.5 |
| 20260906100029 | 20 | 182 | 0.0 | 1.6 | 0.00 | 0.00 | 0.00 | 33 | 1016.3 |
| 20260906095524 | 20 | 169 | 0.0 | 1.6 | 0.00 | 0.00 | 0.00 | 32 | 1016.6 |
| 20260906095019 | 20 | 158 | 0.0 | 1.6 | 0.00 | 0.00 | 0.00 | 34 | 1016.3 |
| 20260906094518 | 20 | 180 | 0.0 | 0.0 | 0.00 | 0.00 | 0.00 | 33 | 1016.3 |
| 20260906094014 | 19 | 166 | 0.0 | 1.6 | 0.00 | 0.00 | 0.00 | 34 | 1016.3 |
| 20260906093511 | 18 | 201 | 1.6 | 4.8 | 0.00 | 0.00 | 0.00 | 35 | 1016.1 |
| 20260906093010 | 18 | 162 | 0.0 | 0.0 | 0.00 | 0.00 | 0.00 | 36 | 1016.4 |
| 20260906092505 | 18 | 175 | 0.0 | 0.0 | 0.00 | 0.00 | 0.00 | 36 | 1016.3 |
| 20260906092000 | 19 | 175 | 0.0 | 0.0 | 0.00 | 0.00 | 0.00 | 36 | 1016.1 |
| 20260906091456 | 20 | 172 | 0.0 | 0.0 | 0.00 | 0.00 | 0.00 | 36 | 1016.1 |
| 20260906090953 | 20 | 173 | 0.0 | 1.6 | 0.00 | 0.00 | 0.00 | 34 | 1016.1 |
| 20260906090448 | 20 | 134 | 1.6 | 1.6 | 0.00 | 0.00 | 0.00 | 31 | 1016.1 |
| 20260906085947 | 20 | 226 | 0.0 | 1.6 | 0.00 | 0.00 | 0.00 | 32 | 1016.3 |
| 20260906085446 | 21 | 227 | 1.6 | 1.6 | 0.00 | 0.00 | 0.00 | 31 | 1016.0 |
| 20260906084946 | 21 | 204 | 0.0 | 1.6 | 0.00 | 0.00 | 0.00 | 29 | 1015.9 |
| 20260906084441 | 22 | 199 | 0.0 | 0.0 | 0.00 | 0.00 | 0.00 | 28 | 1015.9 |
| 20260906083939 | 22 | 212 | 1.6 | 1.6 | 0.00 | 0.00 | 0.00 | 27 | 1015.8 |
| 20260906083436 | 21 | 183 | 1.6 | 3.2 | 0.00 | 0.00 | 0.00 | 28 | 1016.0 |
| 20260906082934 | 22 | 213 | 0.0 | 0.0 | 0.00 | 0.00 | 0.00 | 28 | 1015.9 |
| 20260906082430 | 22 | 177 | 1.6 | 1.6 | 0.00 | 0.00 | 0.00 | 27 | 1016.0 |
| 20260906081926 | 22 | 201 | 0.0 | 1.6 | 0.00 | 0.00 | 0.00 | 25 | 1016.0 |
| 20260906081421 | 23 | 206 | 0.0 | 3.2 | 0.00 | 0.00 | 0.00 | 25 | 1015.9 |
| 20260906080917 | 23 | 180 | 1.6 | 1.6 | 0.00 | 0.00 | 0.00 | 25 | 1016.0 |
| 20260906080414 | 23 | 174 | 0.0 | 4.8 | 0.00 | 0.00 | 0.00 | 26 | 1016.0 |
| 20260906075913 | 23 | 195 | 1.6 | 3.2 | 0.00 | 0.00 | 0.00 | 23 | 1016.0 |
| 20260906075408 | 23 | 190 | 0.0 | 0.0 | 0.00 | 0.00 | 0.00 | 24 | 1016.0 |
| 20260906074903 | 23 | 189 | 0.0 | 4.8 | 0.00 | 0.00 | 0.00 | 24 | 1015.9 |
| 20260906074402 | 25 | 185 | 0.0 | 1.6 | 0.00 | 0.00 | 0.00 | 24 | 1016.0 |
| 20260906073901 | 25 | 213 | 3.2 | 9.7 | 0.00 | 0.00 | 0.00 | 22 | 1016.1 |
| 20260906073356 | 25 | 199 | 3.2 | 4.8 | 0.00 | 0.00 | 0.00 | 22 | 1016.0 |
| 20260906072853 | 25 | 195 | 3.2 | 6.4 | 0.00 | 0.00 | 0.00 | 22 | 1016.1 |
| 20260906072348 | 24 | 186 | 6.4 | 12.9 | 0.00 | 0.00 | 0.00 | 22 | 1016.3 |
| 20260906071844 | 23 | 192 | 1.6 | 4.8 | 0.00 | 0.00 | 0.00 | 23 | 1016.0 |
| 20260906071339 | 23 | 181 | 3.2 | 4.8 | 0.00 | 0.00 | 0.00 | 22 | 1016.1 |
| 20260906070836 | 23 | 187 | 0.0 | 1.6 | 0.00 | 0.00 | 0.00 | 24 | 1016.4 |
| 20260906070331 | 23 | 196 | 1.6 | 6.4 | 0.00 | 0.00 | 0.00 | 22 | 1016.0 |
| 20260906065827 | 23 | 201 | 0.0 | 1.6 | 0.00 | 0.00 | 0.00 | 22 | 1016.0 |
| 20260906065321 | 23 | 191 | 0.0 | 3.2 | 0.00 | 0.00 | 0.00 | 22 | 1016.0 |
| 20260906064817 | 25 | 179 | 0.0 | 1.6 | 0.00 | 0.00 | 0.00 | 21 | 1016.1 |
| 20260906064313 | 25 | 193 | 1.6 | 3.2 | 0.00 | 0.00 | 0.00 | 21 | 1016.0 |
| 20260906063812 | 25 | 183 | 3.2 | 4.8 | 0.00 | 0.00 | 0.00 | 21 | 1015.9 |
| 20260906063308 | 25 | 195 | 3.2 | 6.4 | 0.00 | 0.00 | 0.00 | 21 | 1016.0 |
| 20260906062803 | 25 | 178 | 3.2 | 6.4 | 0.00 | 0.00 | 0.00 | 21 | 1015.9 |
| 20260906062305 | 24 | 190 | 4.8 | 9.7 | 0.00 | 0.00 | 0.00 | 21 | 1015.7 |
| 20260906061758 | 23 | 181 | 6.4 | 9.7 | 0.00 | 0.00 | 0.00 | 22 | 1015.6 |
| 20260906061254 | 23 | 175 | 3.2 | 3.2 | 0.00 | 0.00 | 0.00 | 23 | 1015.8 |
| 20260906060749 | 22 | 124 | 1.6 | 4.8 | 0.00 | 0.00 | 0.00 | 23 | 1015.7 |
| 20260906060247 | 22 | 150 | 1.6 | 3.2 | 0.00 | 0.00 | 0.00 | 25 | 1015.6 |
| 20260906055742 | 22 | 168 | 0.0 | 1.6 | 0.00 | 0.00 | 0.00 | 26 | 1015.6 |
| 20260906055237 | 22 | 123 | 1.6 | 1.6 | 0.00 | 0.00 | 0.00 | 27 | 1015.6 |
| 20260906054732 | 22 | 174 | 0.0 | 1.6 | 0.00 | 0.00 | 0.00 | 27 | 1015.7 |
| 20260906054227 | 22 | 132 | 0.0 | 1.6 | 0.00 | 0.00 | 0.00 | 26 | 1015.7 |
| 20260906053724 | 22 | 136 | 3.2 | 3.2 | 0.00 | 0.00 | 0.00 | 25 | 1015.3 |
| 20260906053219 | 22 | 142 | 1.6 | 3.2 | 0.00 | 0.00 | 0.00 | 26 | 1015.5 |
| 20260906052714 | 23 | 183 | 0.0 | 0.0 | 0.00 | 0.00 | 0.00 | 25 | 1015.9 |
| 20260906052210 | 22 | 149 | 1.6 | 1.6 | 0.00 | 0.00 | 0.00 | 25 | 1015.6 |
| 20260906051707 | 22 | 169 | 1.6 | 3.2 | 0.00 | 0.00 | 0.00 | 27 | 1015.7 |
| 20260906051207 | 22 | 158 | 0.0 | 1.6 | 0.00 | 0.00 | 0.00 | 28 | 1015.5 |
| 20260906050702 | 22 | 178 | 0.0 | 1.6 | 0.00 | 0.00 | 0.00 | 27 | 1015.6 |
| 20260906050157 | 23 | 113 | 1.6 | 1.6 | 0.00 | 0.00 | 0.00 | 26 | 1015.7 |
| 20260906045655 | 22 | 172 | 0.0 | 1.6 | 0.00 | 0.00 | 0.00 | 28 | 1015.6 |
| 20260906045151 | 22 | 94 | 3.2 | 3.2 | 0.00 | 0.00 | 0.00 | 26 | 1015.7 |
| 20260906044647 | 22 | 149 | 0.0 | 1.6 | 0.00 | 0.00 | 0.00 | 26 | 1015.6 |
| 20260906044142 | 23 | 171 | 0.0 | 0.0 | 0.00 | 0.00 | 0.00 | 26 | 1015.5 |
| 20260906043638 | 22 | 151 | 0.0 | 1.6 | 0.00 | 0.00 | 0.00 | 25 | 1015.6 |
| 20260906043133 | 23 | 183 | 0.0 | 0.0 | 0.00 | 0.00 | 0.00 | 26 | 1015.7 |
| 20260906042632 | 23 | 107 | 1.6 | 1.6 | 0.00 | 0.00 | 0.00 | 27 | 1015.3 |
| 20260906042127 | 23 | 138 | 1.6 | 1.6 | 0.00 | 0.00 | 0.00 | 26 | 1015.5 |
| 20260906041624 | 23 | 121 | 1.6 | 4.8 | 0.00 | 0.00 | 0.00 | 26 | 1015.3 |
| 20260906041123 | 23 | 188 | 0.0 | 1.6 | 0.00 | 0.00 | 0.00 | 25 | 1015.2 |
| 20260906040619 | 24 | 181 | 0.0 | 0.0 | 0.00 | 0.00 | 0.00 | 25 | 1015.5 |
| 20260906040114 | 24 | 145 | 1.6 | 4.8 | 0.00 | 0.00 | 0.00 | 25 | 1015.5 |
| 20260906035610 | 23 | 181 | 0.0 | 0.0 | 0.00 | 0.00 | 0.00 | 25 | 1015.2 |
| 20260906035106 | 23 | 160 | 1.6 | 1.6 | 0.00 | 0.00 | 0.00 | 26 | 1015.2 |
| 20260906034605 | 24 | 155 | 0.0 | 0.0 | 0.00 | 0.00 | 0.00 | 25 | 1015.3 |
| 20260906034100 | 24 | 109 | 1.6 | 3.2 | 0.00 | 0.00 | 0.00 | 25 | 1015.0 |
| 20260906033556 | 24 | 148 | 1.6 | 3.2 | 0.00 | 0.00 | 0.00 | 25 | 1015.1 |
| 20260906033051 | 24 | 162 | 0.0 | 3.2 | 0.00 | 0.00 | 0.00 | 25 | 1015.0 |
| 20260906032547 | 24 | 161 | 1.6 | 3.2 | 0.00 | 0.00 | 0.00 | 24 | 1015.1 |
| 20260906032041 | 23 | 58 | 3.2 | 4.8 | 0.00 | 0.00 | 0.00 | 25 | 1015.0 |
| 20260906031537 | 23 | 70 | 4.8 | 4.8 | 0.00 | 0.00 | 0.00 | 25 | 1014.8 |
| 20260906031033 | 23 | 113 | 0.0 | 3.2 | 0.00 | 0.00 | 0.00 | 25 | 1015.0 |
| 20260906030532 | 23 | 190 | 1.6 | 1.6 | 0.00 | 0.00 | 0.00 | 25 | 1014.9 |
| 20260906030032 | 24 | 62 | 3.2 | 4.8 | 0.00 | 0.00 | 0.00 | 25 | 1014.8 |
| 20260906025532 | 24 | 162 | 3.2 | 4.8 | 0.00 | 0.00 | 0.00 | 25 | 1014.7 |
| 20260906025030 | 24 | 176 | 1.6 | 6.4 | 0.00 | 0.00 | 0.00 | 25 | 1014.7 |
| 20260906024526 | 24 | 203 | 3.2 | 4.8 | 0.00 | 0.00 | 0.00 | 25 | 1014.5 |
| 20260906024025 | 25 | 149 | 0.0 | 3.2 | 0.00 | 0.00 | 0.00 | 25 | 1014.3 |
| 20260906023522 | 25 | 131 | 1.6 | 4.8 | 0.00 | 0.00 | 0.00 | 24 | 1014.7 |
| 20260906023016 | 24 | 172 | 0.0 | 1.6 | 0.00 | 0.00 | 0.00 | 25 | 1014.4 |
| 20260906022512 | 25 | 175 | 1.6 | 3.2 | 0.00 | 0.00 | 0.00 | 27 | 1014.5 |
| 20260906022007 | 25 | 176 | 1.6 | 3.2 | 0.00 | 0.00 | 0.00 | 26 | 1014.3 |
| 20260906021502 | 24 | 121 | 1.6 | 3.2 | 0.00 | 0.00 | 0.00 | 27 | 1014.3 |
| 20260906020956 | 25 | 211 | 1.6 | 1.6 | 0.00 | 0.00 | 0.00 | 29 | 1014.4 |
| 20260906020450 | 25 | 182 | 0.0 | 0.0 | 0.00 | 0.00 | 0.00 | 27 | 1014.2 |
| 20260906015950 | 25 | 151 | 0.0 | 1.6 | 0.00 | 0.00 | 0.00 | 26 | 1014.3 |
| 20260906015449 | 26 | 171 | 0.0 | 1.6 | 0.00 | 0.00 | 0.00 | 26 | 1014.4 |
| 20260906014949 | 27 | 184 | 0.0 | 0.0 | 0.00 | 0.00 | 0.00 | 24 | 1014.4 |
| 20260906014449 | 28 | 186 | 0.0 | 0.0 | 0.00 | 0.00 | 0.00 | 24 | 1014.2 |
| 20260906013946 | 28 | 186 | 0.0 | 0.0 | 0.00 | 0.00 | 0.00 | 22 | 1014.4 |
| 20260906013441 | 28 | 177 | 0.0 | 0.0 | 0.00 | 0.00 | 0.00 | 19 | 1014.4 |
| 20260906012937 | 28 | 189 | 0.0 | 0.0 | 0.00 | 0.00 | 0.00 | 19 | 1014.5 |
| 20260906012437 | 28 | 184 | 0.0 | 1.6 | 0.00 | 0.00 | 0.00 | 19 | 1014.7 |
| 20260906011936 | 28 | 191 | 0.0 | 0.0 | 0.00 | 0.00 | 0.00 | 20 | 1014.5 |
| 20260906011432 | 28 | 210 | 0.0 | 4.8 | 0.00 | 0.00 | 0.00 | 19 | 1014.5 |
| 20260906010927 | 28 | 220 | 1.6 | 1.6 | 0.00 | 0.00 | 0.00 | 18 | 1014.5 |
| 20260906010422 | 29 | 208 | 0.0 | 1.6 | 0.00 | 0.00 | 0.00 | 19 | 1014.7 |
| 20260906005918 | 29 | 200 | 1.6 | 4.8 | 0.00 | 0.00 | 0.00 | 19 | 1014.7 |
| 20260906005417 | 30 | 201 | 3.2 | 4.8 | 0.00 | 0.00 | 0.00 | 18 | 1014.5 |
| 20260906004916 | 30 | 203 | 0.0 | 3.2 | 0.00 | 0.00 | 0.00 | 17 | 1014.7 |
| 20260906004410 | 31 | 200 | 0.0 | 1.6 | 0.00 | 0.00 | 0.00 | 18 | 1014.8 |
| 20260906003906 | 31 | 232 | 1.6 | 3.2 | 0.00 | 0.00 | 0.00 | 18 | 1014.7 |
| 20260906003401 | 31 | 242 | 3.2 | 4.8 | 0.00 | 0.00 | 0.00 | 16 | 1014.8 |
| 20260906002857 | 31 | 203 | 0.0 | 3.2 | 0.00 | 0.00 | 0.00 | 18 | 1014.7 |
| 20260906002356 | 31 | 279 | 1.6 | 4.8 | 0.00 | 0.00 | 0.00 | 17 | 1014.8 |
| 20260906001852 | 31 | 209 | 3.2 | 3.2 | 0.00 | 0.00 | 0.00 | 18 | 1014.9 |
| 20260906001347 | 31 | 226 | 1.6 | 3.2 | 0.00 | 0.00 | 0.00 | 17 | 1014.8 |
| 20260906000842 | 31 | 205 | 1.6 | 3.2 | 0.00 | 0.00 | 0.00 | 17 | 1014.9 |
| 20260906000342 | 31 | 243 | 1.6 | 4.8 | 0.00 | 0.00 | 0.00 | 18 | 1014.9 |
| 20260905235842 | 31 | 290 | 3.2 | 4.8 | 0.00 | 0.00 | 0.00 | 17 | 1014.9 |